sensor_id;sensor_type;location;lat;lon;timestamp;temperature;humidity
31003;DHT22;23051;-6.372;106.786;2023-11-22T00:00:25;28.10;79.40
31003;DHT22;23051;-6.372;106.786;2023-11-22T00:02:26;28.20;79.40
31003;DHT22;23051;-6.372;106.786;2023-11-22T00:04:30;28.20;79.30
31003;DHT22;23051;-6.372;106.786;2023-11-22T00:06:31;28.20;79.20
31003;DHT22;23051;-6.372;106.786;2023-11-22T00:08:33;28.30;79.10
31003;DHT22;23051;-6.372;106.786;2023-11-22T00:10:35;28.30;79.10
31003;DHT22;23051;-6.372;106.786;2023-11-22T00:12:39;28.30;79.00
31003;DHT22;23051;-6.372;106.786;2023-11-22T00:14:40;28.40;78.90
31003;DHT22;23051;-6.372;106.786;2023-11-22T00:16:44;28.50;78.90
31003;DHT22;23051;-6.372;106.786;2023-11-22T00:18:46;28.50;78.80
31003;DHT22;23051;-6.372;106.786;2023-11-22T00:20:47;28.60;78.80
31003;DHT22;23051;-6.372;106.786;2023-11-22T00:22:49;28.60;78.60
31003;DHT22;23051;-6.372;106.786;2023-11-22T00:24:51;28.60;78.60
31003;DHT22;23051;-6.372;106.786;2023-11-22T00:26:56;28.70;78.50
31003;DHT22;23051;-6.372;106.786;2023-11-22T00:28:59;28.70;78.40
31003;DHT22;23051;-6.372;106.786;2023-11-22T00:31:01;28.80;78.40
31003;DHT22;23051;-6.372;106.786;2023-11-22T00:33:06;28.80;78.30
31003;DHT22;23051;-6.372;106.786;2023-11-22T00:35:09;28.90;78.30
31003;DHT22;23051;-6.372;106.786;2023-11-22T00:37:10;28.90;78.10
31003;DHT22;23051;-6.372;106.786;2023-11-22T00:39:17;28.90;78.10
31003;DHT22;23051;-6.372;106.786;2023-11-22T00:41:18;29.00;78.10
31003;DHT22;23051;-6.372;106.786;2023-11-22T00:43:20;29.00;77.90
31003;DHT22;23051;-6.372;106.786;2023-11-22T00:45:21;29.10;77.90
31003;DHT22;23051;-6.372;106.786;2023-11-22T00:47:25;29.10;77.80
31003;DHT22;23051;-6.372;106.786;2023-11-22T00:49:28;29.10;77.70
31003;DHT22;23051;-6.372;106.786;2023-11-22T00:51:30;29.20;77.80
31003;DHT22;23051;-6.372;106.786;2023-11-22T00:53:32;29.20;77.70
31003;DHT22;23051;-6.372;106.786;2023-11-22T00:55:34;29.20;77.80
31003;DHT22;23051;-6.372;106.786;2023-11-22T00:57:35;29.20;77.70
31003;DHT22;23051;-6.372;106.786;2023-11-22T00:59:38;29.20;77.70
31003;DHT22;23051;-6.372;106.786;2023-11-22T01:01:40;29.30;77.70
31003;DHT22;23051;-6.372;106.786;2023-11-22T01:03:42;29.30;77.70
31003;DHT22;23051;-6.372;106.786;2023-11-22T01:05:43;29.40;77.70
31003;DHT22;23051;-6.372;106.786;2023-11-22T01:07:50;29.40;78.40
31003;DHT22;23051;-6.372;106.786;2023-11-22T01:09:53;29.40;77.60
31003;DHT22;23051;-6.372;106.786;2023-11-22T01:11:58;29.40;77.60
31003;DHT22;23051;-6.372;106.786;2023-11-22T01:14:04;29.40;77.70
31003;DHT22;23051;-6.372;106.786;2023-11-22T01:16:07;29.40;77.60
31003;DHT22;23051;-6.372;106.786;2023-11-22T01:18:09;29.40;77.60
31003;DHT22;23051;-6.372;106.786;2023-11-22T01:20:14;29.40;77.60
31003;DHT22;23051;-6.372;106.786;2023-11-22T01:22:15;29.40;77.60
31003;DHT22;23051;-6.372;106.786;2023-11-22T01:24:20;29.50;77.70
31003;DHT22;23051;-6.372;106.786;2023-11-22T01:26:22;29.50;77.70
31003;DHT22;23051;-6.372;106.786;2023-11-22T01:28:25;29.50;77.60
31003;DHT22;23051;-6.372;106.786;2023-11-22T01:30:32;29.50;77.60
31003;DHT22;23051;-6.372;106.786;2023-11-22T01:32:34;29.60;77.70
31003;DHT22;23051;-6.372;106.786;2023-11-22T01:34:41;29.60;77.60
31003;DHT22;23051;-6.372;106.786;2023-11-22T01:36:45;29.60;77.50
31003;DHT22;23051;-6.372;106.786;2023-11-22T01:38:47;29.60;77.40
31003;DHT22;23051;-6.372;106.786;2023-11-22T01:40:56;29.70;77.40
31003;DHT22;23051;-6.372;106.786;2023-11-22T01:43:05;29.70;77.40
31003;DHT22;23051;-6.372;106.786;2023-11-22T01:45:11;29.80;77.30
31003;DHT22;23051;-6.372;106.786;2023-11-22T01:47:12;29.80;77.20
31003;DHT22;23051;-6.372;106.786;2023-11-22T01:49:16;29.90;77.10
31003;DHT22;23051;-6.372;106.786;2023-11-22T01:51:21;30.00;77.00
31003;DHT22;23051;-6.372;106.786;2023-11-22T01:53:26;30.00;76.90
31003;DHT22;23051;-6.372;106.786;2023-11-22T01:55:28;30.10;76.80
31003;DHT22;23051;-6.372;106.786;2023-11-22T01:57:30;30.10;76.80
31003;DHT22;23051;-6.372;106.786;2023-11-22T01:59:35;30.10;76.70
31003;DHT22;23051;-6.372;106.786;2023-11-22T02:01:37;30.20;76.70
31003;DHT22;23051;-6.372;106.786;2023-11-22T02:03:41;30.20;76.60
31003;DHT22;23051;-6.372;106.786;2023-11-22T02:05:45;30.20;76.60
31003;DHT22;23051;-6.372;106.786;2023-11-22T02:07:47;30.20;76.50
31003;DHT22;23051;-6.372;106.786;2023-11-22T02:09:52;30.30;76.60
31003;DHT22;23051;-6.372;106.786;2023-11-22T02:14:04;30.30;76.60
31003;DHT22;23051;-6.372;106.786;2023-11-22T02:16:10;30.30;76.60
31003;DHT22;23051;-6.372;106.786;2023-11-22T02:18:19;30.40;76.60
31003;DHT22;23051;-6.372;106.786;2023-11-22T02:22:30;30.40;76.50
31003;DHT22;23051;-6.372;106.786;2023-11-22T02:24:34;30.40;76.40
31003;DHT22;23051;-6.372;106.786;2023-11-22T02:26:44;30.50;76.50
31003;DHT22;23051;-6.372;106.786;2023-11-22T02:28:46;30.50;76.40
31003;DHT22;23051;-6.372;106.786;2023-11-22T02:30:53;30.50;76.40
31003;DHT22;23051;-6.372;106.786;2023-11-22T02:32:55;30.60;77.10
31003;DHT22;23051;-6.372;106.786;2023-11-22T02:34:59;30.70;76.30
31003;DHT22;23051;-6.372;106.786;2023-11-22T02:37:00;30.70;76.20
31003;DHT22;23051;-6.372;106.786;2023-11-22T02:39:02;30.70;76.00
31003;DHT22;23051;-6.372;106.786;2023-11-22T02:41:04;30.80;75.90
31003;DHT22;23051;-6.372;106.786;2023-11-22T02:43:40;30.90;75.80
31003;DHT22;23051;-6.372;106.786;2023-11-22T02:45:47;30.90;75.70
31003;DHT22;23051;-6.372;106.786;2023-11-22T02:47:54;31.00;75.60
31003;DHT22;23051;-6.372;106.786;2023-11-22T02:49:56;31.10;75.50
31003;DHT22;23051;-6.372;106.786;2023-11-22T02:52:00;31.10;75.40
31003;DHT22;23051;-6.372;106.786;2023-11-22T02:54:04;31.20;75.30
31003;DHT22;23051;-6.372;106.786;2023-11-22T02:56:09;31.20;75.30
31003;DHT22;23051;-6.372;106.786;2023-11-22T02:58:11;31.20;75.30
31003;DHT22;23051;-6.372;106.786;2023-11-22T03:00:13;31.20;75.20
31003;DHT22;23051;-6.372;106.786;2023-11-22T03:02:15;31.30;75.20
31003;DHT22;23051;-6.372;106.786;2023-11-22T03:04:18;31.30;75.10
31003;DHT22;23051;-6.372;106.786;2023-11-22T03:06:22;31.30;75.00
31003;DHT22;23051;-6.372;106.786;2023-11-22T03:08:25;31.40;75.00
31003;DHT22;23051;-6.372;106.786;2023-11-22T03:10:29;31.40;75.00
31003;DHT22;23051;-6.372;106.786;2023-11-22T03:12:33;31.50;74.90
31003;DHT22;23051;-6.372;106.786;2023-11-22T03:14:39;31.50;74.90
31003;DHT22;23051;-6.372;106.786;2023-11-22T03:16:43;31.50;74.80
31003;DHT22;23051;-6.372;106.786;2023-11-22T03:20:59;31.60;74.80
31003;DHT22;23051;-6.372;106.786;2023-11-22T03:23:07;31.70;74.80
31003;DHT22;23051;-6.372;106.786;2023-11-22T03:25:16;31.70;74.70
31003;DHT22;23051;-6.372;106.786;2023-11-22T03:31:30;31.80;74.60
31003;DHT22;23051;-6.372;106.786;2023-11-22T03:33:34;31.80;74.60
31003;DHT22;23051;-6.372;106.786;2023-11-22T03:35:44;31.80;74.50
31003;DHT22;23051;-6.372;106.786;2023-11-22T03:37:46;31.90;74.40
31003;DHT22;23051;-6.372;106.786;2023-11-22T03:39:55;31.90;74.40
31003;DHT22;23051;-6.372;106.786;2023-11-22T03:41:59;32.00;74.40
31003;DHT22;23051;-6.372;106.786;2023-11-22T03:44:04;32.00;74.30
31003;DHT22;23051;-6.372;106.786;2023-11-22T03:46:09;32.00;74.10
31003;DHT22;23051;-6.372;106.786;2023-11-22T03:48:14;32.00;74.00
31003;DHT22;23051;-6.372;106.786;2023-11-22T03:50:18;32.10;74.00
31003;DHT22;23051;-6.372;106.786;2023-11-22T03:52:24;32.10;74.00
31003;DHT22;23051;-6.372;106.786;2023-11-22T03:54:33;32.20;74.00
31003;DHT22;23051;-6.372;106.786;2023-11-22T03:56:35;32.20;74.00
31003;DHT22;23051;-6.372;106.786;2023-11-22T03:58:36;32.20;74.10
31003;DHT22;23051;-6.372;106.786;2023-11-22T04:00:43;32.10;74.00
31003;DHT22;23051;-6.372;106.786;2023-11-22T04:02:45;32.20;74.00
31003;DHT22;23051;-6.372;106.786;2023-11-22T04:04:49;32.20;73.80
31003;DHT22;23051;-6.372;106.786;2023-11-22T04:06:53;32.30;73.80
31003;DHT22;23051;-6.372;106.786;2023-11-22T04:08:59;32.30;73.80
31003;DHT22;23051;-6.372;106.786;2023-11-22T04:11:08;32.40;73.70
31003;DHT22;23051;-6.372;106.786;2023-11-22T04:13:15;32.50;73.50
31003;DHT22;23051;-6.372;106.786;2023-11-22T04:15:16;32.60;73.30
31003;DHT22;23051;-6.372;106.786;2023-11-22T04:17:20;32.80;73.10
31003;DHT22;23051;-6.372;106.786;2023-11-22T04:19:30;32.90;72.80
31003;DHT22;23051;-6.372;106.786;2023-11-22T04:21:32;33.00;72.50
31003;DHT22;23051;-6.372;106.786;2023-11-22T04:23:40;33.20;72.30
31003;DHT22;23051;-6.372;106.786;2023-11-22T04:25:46;33.30;72.10
31003;DHT22;23051;-6.372;106.786;2023-11-22T04:27:52;33.40;72.00
31003;DHT22;23051;-6.372;106.786;2023-11-22T04:30:04;33.50;71.80
31003;DHT22;23051;-6.372;106.786;2023-11-22T04:32:09;33.50;71.70
31003;DHT22;23051;-6.372;106.786;2023-11-22T04:34:12;33.60;71.60
31003;DHT22;23051;-6.372;106.786;2023-11-22T04:36:17;33.60;71.50
31003;DHT22;23051;-6.372;106.786;2023-11-22T04:38:24;33.60;71.60
31003;DHT22;23051;-6.372;106.786;2023-11-22T04:40:26;33.60;71.60
31003;DHT22;23051;-6.372;106.786;2023-11-22T04:42:30;33.60;71.60
31003;DHT22;23051;-6.372;106.786;2023-11-22T04:44:37;33.70;71.60
31003;DHT22;23051;-6.372;106.786;2023-11-22T04:46:43;33.70;71.60
31003;DHT22;23051;-6.372;106.786;2023-11-22T04:48:44;33.70;71.50
31003;DHT22;23051;-6.372;106.786;2023-11-22T04:50:48;33.70;71.50
31003;DHT22;23051;-6.372;106.786;2023-11-22T04:52:54;33.80;71.60
31003;DHT22;23051;-6.372;106.786;2023-11-22T04:54:58;33.80;71.50
31003;DHT22;23051;-6.372;106.786;2023-11-22T04:57:02;33.80;71.40
31003;DHT22;23051;-6.372;106.786;2023-11-22T04:59:06;34.00;71.30
31003;DHT22;23051;-6.372;106.786;2023-11-22T05:01:07;34.20;71.00
31003;DHT22;23051;-6.372;106.786;2023-11-22T05:03:13;34.40;70.70
31003;DHT22;23051;-6.372;106.786;2023-11-22T05:05:21;34.60;70.00
31003;DHT22;23051;-6.372;106.786;2023-11-22T05:07:25;34.90;69.50
31003;DHT22;23051;-6.372;106.786;2023-11-22T05:09:30;35.10;69.10
31003;DHT22;23051;-6.372;106.786;2023-11-22T05:11:34;35.30;68.70
31003;DHT22;23051;-6.372;106.786;2023-11-22T05:13:36;35.40;68.60
31003;DHT22;23051;-6.372;106.786;2023-11-22T05:15:40;35.50;68.40
31003;DHT22;23051;-6.372;106.786;2023-11-22T05:20:18;35.70;68.00
31003;DHT22;23051;-6.372;106.786;2023-11-22T05:22:25;35.70;67.80
31003;DHT22;23051;-6.372;106.786;2023-11-22T05:24:29;35.80;67.80
31003;DHT22;23051;-6.372;106.786;2023-11-22T05:26:35;36.00;67.70
31003;DHT22;23051;-6.372;106.786;2023-11-22T05:28:42;36.10;67.30
31003;DHT22;23051;-6.372;106.786;2023-11-22T05:30:43;36.30;67.00
31003;DHT22;23051;-6.372;106.786;2023-11-22T05:32:45;36.50;66.80
31003;DHT22;23051;-6.372;106.786;2023-11-22T05:34:52;36.50;66.60
31003;DHT22;23051;-6.372;106.786;2023-11-22T05:36:53;36.50;66.60
31003;DHT22;23051;-6.372;106.786;2023-11-22T05:38:58;36.60;66.70
31003;DHT22;23051;-6.372;106.786;2023-11-22T05:41:02;36.60;66.60
31003;DHT22;23051;-6.372;106.786;2023-11-22T05:43:06;36.60;66.50
31003;DHT22;23051;-6.372;106.786;2023-11-22T05:45:12;36.70;66.40
31003;DHT22;23051;-6.372;106.786;2023-11-22T05:47:17;36.80;66.20
31003;DHT22;23051;-6.372;106.786;2023-11-22T05:49:23;36.90;66.20
31003;DHT22;23051;-6.372;106.786;2023-11-22T05:51:31;37.00;65.90
31003;DHT22;23051;-6.372;106.786;2023-11-22T05:53:38;37.20;65.60
31003;DHT22;23051;-6.372;106.786;2023-11-22T05:55:44;37.40;65.30
31003;DHT22;23051;-6.372;106.786;2023-11-22T05:57:51;37.50;65.10
31003;DHT22;23051;-6.372;106.786;2023-11-22T05:59:55;37.50;64.90
31003;DHT22;23051;-6.372;106.786;2023-11-22T06:01:59;37.60;64.80
31003;DHT22;23051;-6.372;106.786;2023-11-22T06:04:03;37.70;64.80
31003;DHT22;23051;-6.372;106.786;2023-11-22T06:06:25;37.80;64.70
31003;DHT22;23051;-6.372;106.786;2023-11-22T06:08:27;37.90;64.50
31003;DHT22;23051;-6.372;106.786;2023-11-22T06:10:38;38.00;64.30
31003;DHT22;23051;-6.372;106.786;2023-11-22T06:12:44;38.10;64.10
31003;DHT22;23051;-6.372;106.786;2023-11-22T06:14:48;38.10;64.00
31003;DHT22;23051;-6.372;106.786;2023-11-22T06:16:52;38.10;64.10
31003;DHT22;23051;-6.372;106.786;2023-11-22T06:18:56;38.10;64.10
31003;DHT22;23051;-6.372;106.786;2023-11-22T06:20:57;38.10;64.10
31003;DHT22;23051;-6.372;106.786;2023-11-22T06:23:04;38.00;64.10
31003;DHT22;23051;-6.372;106.786;2023-11-22T06:25:09;37.90;64.30
31003;DHT22;23051;-6.372;106.786;2023-11-22T06:27:12;37.80;64.40
31003;DHT22;23051;-6.372;106.786;2023-11-22T06:29:16;37.80;64.50
31003;DHT22;23051;-6.372;106.786;2023-11-22T06:31:20;37.90;65.40
31003;DHT22;23051;-6.372;106.786;2023-11-22T06:33:25;37.90;64.40
31003;DHT22;23051;-6.372;106.786;2023-11-22T06:35:29;38.00;64.30
31003;DHT22;23051;-6.372;106.786;2023-11-22T06:37:32;38.10;64.20
31003;DHT22;23051;-6.372;106.786;2023-11-22T06:39:37;38.10;64.00
31003;DHT22;23051;-6.372;106.786;2023-11-22T06:41:42;38.20;64.00
31003;DHT22;23051;-6.372;106.786;2023-11-22T06:43:46;38.10;63.80
31003;DHT22;23051;-6.372;106.786;2023-11-22T06:45:52;38.00;64.00
31003;DHT22;23051;-6.372;106.786;2023-11-22T06:47:56;37.90;64.20
31003;DHT22;23051;-6.372;106.786;2023-11-22T06:49:59;37.80;64.40
31003;DHT22;23051;-6.372;106.786;2023-11-22T06:52:03;37.70;64.50
31003;DHT22;23051;-6.372;106.786;2023-11-22T06:54:07;37.70;64.70
31003;DHT22;23051;-6.372;106.786;2023-11-22T06:56:08;37.70;64.70
31003;DHT22;23051;-6.372;106.786;2023-11-22T06:58:10;37.70;65.50
31003;DHT22;23051;-6.372;106.786;2023-11-22T07:00:12;37.70;64.50
31003;DHT22;23051;-6.372;106.786;2023-11-22T07:02:16;37.80;64.30
31003;DHT22;23051;-6.372;106.786;2023-11-22T07:04:22;37.80;64.20
31003;DHT22;23051;-6.372;106.786;2023-11-22T07:06:24;37.90;64.10
31003;DHT22;23051;-6.372;106.786;2023-11-22T07:08:26;37.90;64.00
31003;DHT22;23051;-6.372;106.786;2023-11-22T07:10:30;37.80;64.10
31003;DHT22;23051;-6.372;106.786;2023-11-22T07:12:35;37.70;64.50
31003;DHT22;23051;-6.372;106.786;2023-11-22T07:14:41;37.60;64.60
31003;DHT22;23051;-6.372;106.786;2023-11-22T07:16:44;37.40;64.90
31003;DHT22;23051;-6.372;106.786;2023-11-22T07:18:46;37.30;65.30
31003;DHT22;23051;-6.372;106.786;2023-11-22T07:20:51;37.20;65.50
31003;DHT22;23051;-6.372;106.786;2023-11-22T07:22:57;37.00;65.70
31003;DHT22;23051;-6.372;106.786;2023-11-22T07:25:00;36.80;65.90
31003;DHT22;23051;-6.372;106.786;2023-11-22T07:27:07;36.70;66.20
31003;DHT22;23051;-6.372;106.786;2023-11-22T07:29:15;36.50;66.50
31003;DHT22;23051;-6.372;106.786;2023-11-22T07:31:17;36.50;66.80
31003;DHT22;23051;-6.372;106.786;2023-11-22T07:33:21;36.40;66.70
31003;DHT22;23051;-6.372;106.786;2023-11-22T07:35:26;36.40;66.80
31003;DHT22;23051;-6.372;106.786;2023-11-22T07:37:34;36.40;66.60
31003;DHT22;23051;-6.372;106.786;2023-11-22T07:39:36;36.40;66.50
31003;DHT22;23051;-6.372;106.786;2023-11-22T07:41:43;36.50;66.40
31003;DHT22;23051;-6.372;106.786;2023-11-22T07:43:46;36.40;66.40
31003;DHT22;23051;-6.372;106.786;2023-11-22T07:45:55;36.30;66.40
31003;DHT22;23051;-6.372;106.786;2023-11-22T07:48:00;36.30;66.50
31003;DHT22;23051;-6.372;106.786;2023-11-22T07:50:10;36.20;66.60
31003;DHT22;23051;-6.372;106.786;2023-11-22T07:52:14;36.10;66.70
31003;DHT22;23051;-6.372;106.786;2023-11-22T07:54:20;36.10;66.80
31003;DHT22;23051;-6.372;106.786;2023-11-22T07:56:27;36.10;66.80
31003;DHT22;23051;-6.372;106.786;2023-11-22T07:58:29;36.10;66.80
31003;DHT22;23051;-6.372;106.786;2023-11-22T08:00:40;36.20;66.60
31003;DHT22;23051;-6.372;106.786;2023-11-22T08:02:43;36.30;66.50
31003;DHT22;23051;-6.372;106.786;2023-11-22T08:04:48;36.20;66.40
31003;DHT22;23051;-6.372;106.786;2023-11-22T08:06:54;36.20;66.40
31003;DHT22;23051;-6.372;106.786;2023-11-22T08:08:58;36.20;66.30
31003;DHT22;23051;-6.372;106.786;2023-11-22T08:11:20;36.10;66.30
31003;DHT22;23051;-6.372;106.786;2023-11-22T08:13:30;36.10;66.40
31003;DHT22;23051;-6.372;106.786;2023-11-22T08:15:34;35.90;66.80
31003;DHT22;23051;-6.372;106.786;2023-11-22T08:17:41;35.70;67.20
31003;DHT22;23051;-6.372;106.786;2023-11-22T08:21:49;35.20;68.50
31003;DHT22;23051;-6.372;106.786;2023-11-22T08:23:58;34.90;68.90
31003;DHT22;23051;-6.372;106.786;2023-11-22T08:28:06;34.60;69.60
31003;DHT22;23051;-6.372;106.786;2023-11-22T08:30:16;34.50;69.80
31003;DHT22;23051;-6.372;106.786;2023-11-22T08:32:18;34.40;69.80
31003;DHT22;23051;-6.372;106.786;2023-11-22T08:34:24;34.40;70.00
31003;DHT22;23051;-6.372;106.786;2023-11-22T08:36:28;34.30;70.00
31003;DHT22;23051;-6.372;106.786;2023-11-22T08:38:32;34.30;70.10
31003;DHT22;23051;-6.372;106.786;2023-11-22T08:40:36;34.20;70.30
31003;DHT22;23051;-6.372;106.786;2023-11-22T08:42:43;34.00;70.40
31003;DHT22;23051;-6.372;106.786;2023-11-22T08:44:46;33.90;70.60
31003;DHT22;23051;-6.372;106.786;2023-11-22T08:46:50;33.90;70.90
31003;DHT22;23051;-6.372;106.786;2023-11-22T08:48:56;33.70;70.90
31003;DHT22;23051;-6.372;106.786;2023-11-22T08:51:00;33.60;71.10
31003;DHT22;23051;-6.372;106.786;2023-11-22T08:53:02;33.60;71.30
31003;DHT22;23051;-6.372;106.786;2023-11-22T08:55:09;33.50;71.30
31003;DHT22;23051;-6.372;106.786;2023-11-22T08:57:11;33.50;71.30
31003;DHT22;23051;-6.372;106.786;2023-11-22T08:59:20;33.50;71.30
31003;DHT22;23051;-6.372;106.786;2023-11-22T09:01:25;33.50;71.20
31003;DHT22;23051;-6.372;106.786;2023-11-22T09:03:29;33.40;71.20
31003;DHT22;23051;-6.372;106.786;2023-11-22T09:05:31;33.40;71.20
31003;DHT22;23051;-6.372;106.786;2023-11-22T09:07:35;33.40;71.30
31003;DHT22;23051;-6.372;106.786;2023-11-22T09:09:38;33.40;71.30
31003;DHT22;23051;-6.372;106.786;2023-11-22T09:11:46;33.40;71.20
31003;DHT22;23051;-6.372;106.786;2023-11-22T09:13:48;33.40;71.00
31003;DHT22;23051;-6.372;106.786;2023-11-22T09:15:53;33.50;70.90
31003;DHT22;23051;-6.372;106.786;2023-11-22T09:17:57;33.50;70.90
31003;DHT22;23051;-6.372;106.786;2023-11-22T09:20:01;33.50;70.80
31003;DHT22;23051;-6.372;106.786;2023-11-22T09:22:12;33.40;70.80
31003;DHT22;23051;-6.372;106.786;2023-11-22T09:24:17;33.40;71.00
31003;DHT22;23051;-6.372;106.786;2023-11-22T09:26:26;33.30;71.20
31003;DHT22;23051;-6.372;106.786;2023-11-22T09:28:30;33.20;71.30
31003;DHT22;23051;-6.372;106.786;2023-11-22T09:30:35;33.10;71.50
31003;DHT22;23051;-6.372;106.786;2023-11-22T09:32:39;33.10;71.60
31003;DHT22;23051;-6.372;106.786;2023-11-22T09:34:42;33.00;71.60
31003;DHT22;23051;-6.372;106.786;2023-11-22T09:36:47;33.00;71.70
31003;DHT22;23051;-6.372;106.786;2023-11-22T09:38:51;33.00;71.60
31003;DHT22;23051;-6.372;106.786;2023-11-22T09:40:56;32.90;71.50
31003;DHT22;23051;-6.372;106.786;2023-11-22T09:42:58;32.90;71.60
31003;DHT22;23051;-6.372;106.786;2023-11-22T09:45:06;32.90;72.50
31003;DHT22;23051;-6.372;106.786;2023-11-22T09:47:10;32.90;71.70
31003;DHT22;23051;-6.372;106.786;2023-11-22T09:49:19;32.90;71.80
31003;DHT22;23051;-6.372;106.786;2023-11-22T09:51:27;32.80;71.80
31003;DHT22;23051;-6.372;106.786;2023-11-22T09:55:35;32.70;71.80
31003;DHT22;23051;-6.372;106.786;2023-11-22T09:57:38;32.70;71.80
31003;DHT22;23051;-6.372;106.786;2023-11-22T09:59:43;32.70;71.80
31003;DHT22;23051;-6.372;106.786;2023-11-22T10:01:47;32.70;71.80
31003;DHT22;23051;-6.372;106.786;2023-11-22T10:03:58;32.70;71.90
31003;DHT22;23051;-6.372;106.786;2023-11-22T10:06:03;32.60;71.80
31003;DHT22;23051;-6.372;106.786;2023-11-22T10:08:05;32.70;71.90
31003;DHT22;23051;-6.372;106.786;2023-11-22T10:10:07;32.60;71.80
31003;DHT22;23051;-6.372;106.786;2023-11-22T10:12:21;32.60;71.80
31003;DHT22;23051;-6.372;106.786;2023-11-22T10:14:27;32.60;71.90
31003;DHT22;23051;-6.372;106.786;2023-11-22T10:16:33;32.50;72.00
31003;DHT22;23051;-6.372;106.786;2023-11-22T10:18:53;32.50;72.10
31003;DHT22;23051;-6.372;106.786;2023-11-22T10:20:54;32.40;72.00
31003;DHT22;23051;-6.372;106.786;2023-11-22T10:22:56;32.40;72.20
31003;DHT22;23051;-6.372;106.786;2023-11-22T10:24:59;32.40;72.10
31003;DHT22;23051;-6.372;106.786;2023-11-22T10:27:07;32.40;72.20
31003;DHT22;23051;-6.372;106.786;2023-11-22T10:29:10;32.40;72.20
31003;DHT22;23051;-6.372;106.786;2023-11-22T10:31:19;32.30;72.20
31003;DHT22;23051;-6.372;106.786;2023-11-22T10:35:30;32.20;72.40
31003;DHT22;23051;-6.372;106.786;2023-11-22T10:37:50;32.20;72.50
31003;DHT22;23051;-6.372;106.786;2023-11-22T10:40:01;32.30;73.30
31003;DHT22;23051;-6.372;106.786;2023-11-22T10:42:05;32.20;72.20
31003;DHT22;23051;-6.372;106.786;2023-11-22T10:44:14;32.30;72.20
31003;DHT22;23051;-6.372;106.786;2023-11-22T10:46:17;32.40;72.00
31003;DHT22;23051;-6.372;106.786;2023-11-22T10:48:22;32.40;71.80
31003;DHT22;23051;-6.372;106.786;2023-11-22T10:50:28;32.50;71.70
31003;DHT22;23051;-6.372;106.786;2023-11-22T10:52:30;32.70;71.40
31003;DHT22;23051;-6.372;106.786;2023-11-22T10:54:36;32.90;71.00
31003;DHT22;23051;-6.372;106.786;2023-11-22T11:00:54;33.10;70.30
31003;DHT22;23051;-6.372;106.786;2023-11-22T11:03:03;33.10;70.10
31003;DHT22;23051;-6.372;106.786;2023-11-22T11:05:18;33.20;70.10
31003;DHT22;23051;-6.372;106.786;2023-11-22T11:07:31;33.20;69.90
31003;DHT22;23051;-6.372;106.786;2023-11-22T11:09:37;33.30;69.90
31003;DHT22;23051;-6.372;106.786;2023-11-22T11:11:46;33.30;69.90
31003;DHT22;23051;-6.372;106.786;2023-11-22T11:13:55;33.30;69.90
31003;DHT22;23051;-6.372;106.786;2023-11-22T11:16:00;33.20;69.90
31003;DHT22;23051;-6.372;106.786;2023-11-22T11:18:03;33.20;70.20
31003;DHT22;23051;-6.372;106.786;2023-11-22T11:20:05;33.20;70.30
31003;DHT22;23051;-6.372;106.786;2023-11-22T11:22:10;33.20;70.30
31003;DHT22;23051;-6.372;106.786;2023-11-22T11:24:12;33.20;70.30
31003;DHT22;23051;-6.372;106.786;2023-11-22T11:26:18;33.20;70.30
31003;DHT22;23051;-6.372;106.786;2023-11-22T11:28:26;33.20;70.30
31003;DHT22;23051;-6.372;106.786;2023-11-22T11:34:47;33.20;70.50
31003;DHT22;23051;-6.372;106.786;2023-11-22T11:37:02;33.10;70.50
31003;DHT22;23051;-6.372;106.786;2023-11-22T11:39:12;33.10;70.60
31003;DHT22;23051;-6.372;106.786;2023-11-22T11:41:17;33.10;70.60
31003;DHT22;23051;-6.372;106.786;2023-11-22T11:45:46;33.20;70.60
31003;DHT22;23051;-6.372;106.786;2023-11-22T11:47:47;33.20;70.50
31003;DHT22;23051;-6.372;106.786;2023-11-22T11:49:49;33.20;70.50
31003;DHT22;23051;-6.372;106.786;2023-11-22T11:51:54;33.30;70.50
31003;DHT22;23051;-6.372;106.786;2023-11-22T11:53:58;33.30;70.50
31003;DHT22;23051;-6.372;106.786;2023-11-22T11:56:02;33.20;70.50
31003;DHT22;23051;-6.372;106.786;2023-11-22T11:58:10;33.20;70.70
31003;DHT22;23051;-6.372;106.786;2023-11-22T12:00:17;33.10;70.80
31003;DHT22;23051;-6.372;106.786;2023-11-22T12:02:19;33.10;70.80
31003;DHT22;23051;-6.372;106.786;2023-11-22T12:04:28;33.10;70.90
31003;DHT22;23051;-6.372;106.786;2023-11-22T12:06:32;33.10;70.90
31003;DHT22;23051;-6.372;106.786;2023-11-22T12:10:47;33.00;71.10
31003;DHT22;23051;-6.372;106.786;2023-11-22T12:12:57;33.00;71.20
31003;DHT22;23051;-6.372;106.786;2023-11-22T12:14:59;32.90;71.10
31003;DHT22;23051;-6.372;106.786;2023-11-22T12:17:01;32.90;71.30
31003;DHT22;23051;-6.372;106.786;2023-11-22T12:19:07;32.90;71.50
31003;DHT22;23051;-6.372;106.786;2023-11-22T12:21:15;32.80;71.50
31003;DHT22;23051;-6.372;106.786;2023-11-22T12:23:20;32.80;71.60
31003;DHT22;23051;-6.372;106.786;2023-11-22T12:25:22;32.80;71.70
31003;DHT22;23051;-6.372;106.786;2023-11-22T12:27:27;32.70;71.70
31003;DHT22;23051;-6.372;106.786;2023-11-22T12:29:29;32.80;71.80
31003;DHT22;23051;-6.372;106.786;2023-11-22T12:31:33;32.70;71.70
31003;DHT22;23051;-6.372;106.786;2023-11-22T12:33:40;32.70;71.70
31003;DHT22;23051;-6.372;106.786;2023-11-22T12:35:44;32.80;71.80
31003;DHT22;23051;-6.372;106.786;2023-11-22T12:37:46;32.70;71.70
31003;DHT22;23051;-6.372;106.786;2023-11-22T12:39:52;32.70;71.70
31003;DHT22;23051;-6.372;106.786;2023-11-22T12:42:03;32.70;71.80
31003;DHT22;23051;-6.372;106.786;2023-11-22T12:44:09;32.70;71.90
31003;DHT22;23051;-6.372;106.786;2023-11-22T12:46:11;32.70;71.90
31003;DHT22;23051;-6.372;106.786;2023-11-22T12:48:22;32.70;71.90
31003;DHT22;23051;-6.372;106.786;2023-11-22T12:52:43;32.70;71.90
31003;DHT22;23051;-6.372;106.786;2023-11-22T12:54:47;32.70;71.90
31003;DHT22;23051;-6.372;106.786;2023-11-22T12:56:50;32.70;72.00
31003;DHT22;23051;-6.372;106.786;2023-11-22T12:58:55;32.60;72.00
31003;DHT22;23051;-6.372;106.786;2023-11-22T13:00:59;32.60;72.20
31003;DHT22;23051;-6.372;106.786;2023-11-22T13:03:02;32.60;72.20
31003;DHT22;23051;-6.372;106.786;2023-11-22T13:05:06;32.60;72.20
31003;DHT22;23051;-6.372;106.786;2023-11-22T13:07:16;32.60;72.30
31003;DHT22;23051;-6.372;106.786;2023-11-22T13:09:23;32.50;72.30
31003;DHT22;23051;-6.372;106.786;2023-11-22T13:11:27;32.50;72.40
31003;DHT22;23051;-6.372;106.786;2023-11-22T13:13:29;32.50;72.50
31003;DHT22;23051;-6.372;106.786;2023-11-22T13:15:31;32.50;72.50
31003;DHT22;23051;-6.372;106.786;2023-11-22T13:17:36;32.50;72.50
31003;DHT22;23051;-6.372;106.786;2023-11-22T13:19:43;32.50;72.50
31003;DHT22;23051;-6.372;106.786;2023-11-22T13:21:47;32.50;72.50